Dannemora, New York
Current Conditions -  °F | °C
As of 5:53 PM on Thursday 20 Nov 2014 (Local Time) from KPBG Reporting Station
Scattered Clouds Scattered Clouds  
Wind Chill: 20°   Ceiling: Unl
Heat Index: 28°   Visibility: 10mi
Dew Point: 15°   Wind: 8mph
Humidity: 58%   Direction: 220°SW
Pressure: 29.79"   Gusts: 18mph
Location:  44.72°N, 73.72°W
Report Text: KPBG 202253Z AUTO 22007G16KT 190V260 10SM SCT045 M02/M09 A2979 RMK AO2 SLP091 T10221094
Loading
Personal Weather Stations






























Interactive Weather Map New forecast layout! Learn more

10-Day Weather Forecast

Advertisements
Track Severe Weather on mobile